Terminal Aerodrome Forecast
Issued by NWS Atlanta, GA

Home | Current Version | Previous Version | Text Only | Print | Product List | Glossary On
Versions: 1 2 3 4 5 6 7 8 9 10 11 12 13 14 15 16 17 18 19 20 21 22 23 24 25 26 27 28 29 30 31 32 33 34 35 36 37 38 39 40 41
000
FTUS42 KFFC 300338 AAB
TAFATL
TAF AMD
KATL 300338Z 3004/3106 28007KT P6SM BKN045
     FM300600 32015G25KT P6SM SCT025 OVC045
     FM300700 32013G22KT P6SM OVC020
     FM301200 32014G24KT P6SM SCT040
     FM301500 32014G24KT P6SM SCT150
     FM310000 33009KT P6SM SKC=

USA.gov is the U.S. government's official web portal to all federal, state and local government web resources and services.